Chelan Falls, WA

7:46 AM PDT on July 27, 2016 (GMT -0700)
APRSWXNET Chelan Area | | Change Station

Elev 1169 ft 47.84 °N, 120.01 °W | Updated 5 seconds ago

Clear
Clear
71.8 °F
Feels Like 77 °F
N
3.1
Wind Variable Wind from ENE
Gusts 3.1 mph

Today
High -- | Low -- °F
--% Chance of Precip.
Yesterday
High -- | Low -- °F
Precip. -- in
Pressure 30.02 in
Visibility 10.0 miles
Clouds Clear
Heat Index 77 °F
Dew Point 49 °F
Humidity 45%
Rainfall 0.00 in
Snow Depth Not available.
5:31 AM 8:40 PM
Last Quarter, 42% visible
METAR KEAT 271355Z AUTO 33010KT 10SM CLR 22/13 A3005 RMK AO2 SLP165 T02170133
Pressure 30.02 in
Visibility 10.0 miles
Clouds Clear
Heat Index 77 °F
Dew Point 49 °F
Humidity 45%
Rainfall 0.00 in
Snow Depth Not available.
5:31 AM 8:40 PM
Last Quarter, 42% visible
METAR KEAT 271355Z AUTO 33010KT 10SM CLR 22/13 A3005 RMK AO2 SLP165 T02170133

10-Day Weather Forecast

Almanac

Astronomy

Jul. 27, 2016 Rise Set
Actual Time
Civil Twilight
Nautical Twilight
Astronomical Twilight
Moon
Length of Visible Light
Length of Day
Tomorrow will be .
, % of the Moon is Illuminated

Today's Extremes

State Highs State Lows

Community

WunderPhotos

Upload Photos

1,927,847 photos uploaded!

WunderBlog® & News

Nearby

Air Quality

  Air Quality AQ Index Pollutant
Not available.

Snow Depth

Station Depth Elevation

Earthquake Activity

City Distance Mag. Time & Date
Minimum magnitude displayed is 2.5.

Coastal Water Temperatures

Place Temperature

Stations

Nearby Weather Stations

Station Location Temp. Windchill Dew Point Humidity Wind Precip. Elev Updated Type
                   

Watches & Warnings

There are currently no watches in effect.